Time;durP1;ratioP1;P1;durP2;ratioP2;P2;SDS_P1;SDS_P2;PMS_P1;PMS_P2;Temp;Humidity;BMP_temperature;BMP_pressure;BME280_temperature;BME280_humidity;BME280_pressure;Samples;Min_cycle;Max_cycle;Signal;HPM_P1;HPM_P2
2021/06/24 00:01:32;;;;;;;;;;;;;;;27.95;41.77;100725.34;5019489;28;988;-36
2021/06/24 00:03:57;;;;;;;;;;;;;;;27.96;42.27;100720.78;5019842;28;808;-38
2021/06/24 00:06:23;;;;;;;;;;;;;;;27.99;42.14;100733.94;5019679;28;764;-38
2021/06/24 00:08:48;;;;;;;;;;;;;;;28.07;41.92;100735.66;5019428;28;773;-36
2021/06/24 00:11:13;;;;;;;;;;;;;;;27.99;42.26;100734.75;5019876;28;806;-38
2021/06/24 00:13:38;;;;;;;;;;;;;;;28.01;42.02;100736.44;5038235;28;1971;-36
2021/06/24 00:16:04;;;;;;;;;;;;;;;28.00;42.20;100724.78;5039642;28;815;-35
2021/06/24 00:18:29;;;;;;;;;;;;;;;28.00;42.22;100716.66;5020364;28;1038;-37
2021/06/24 00:20:55;;;;;;;;;;;;;;;28.05;42.02;100716.94;5019309;28;844;-37
2021/06/24 00:23:20;;;;;;;;;;;;;;;28.04;42.29;100717.13;5019638;28;828;-38
2021/06/24 00:25:46;;;;;;;;;;;;;;;28.01;42.45;100722.91;5019740;28;737;-37
2021/06/24 00:28:15;;;;;;;;;;;;;;;28.03;42.68;100713.56;5018784;28;889;-35
2021/06/24 00:30:40;;;;;;;;;;;;;;;28.06;42.66;100701.56;5019407;28;1130;-35
2021/06/24 00:33:05;;;;;;;;;;;;;;;28.01;42.69;100712.09;5019138;28;1918;-37
2021/06/24 00:35:31;;;;;;;;;;;;;;;28.04;42.80;100709.03;5019304;28;792;-36
2021/06/24 00:37:56;;;;;;;;;;;;;;;28.07;42.80;100717.59;5019142;28;851;-37
2021/06/24 00:40:21;;;;;;;;;;;;;;;28.04;42.79;100717.13;5019166;28;785;-36
2021/06/24 00:42:47;;;;;;;;;;;;;;;28.06;42.82;100717.78;5016665;28;848;-38
2021/06/24 00:45:12;;;;;;;;;;;;;;;28.10;42.82;100716.34;5001351;28;1344;-37
2021/06/24 00:47:37;;;;;;;;;;;;;;;28.13;42.88;100717.88;5030552;28;952;-38
2021/06/24 00:50:03;;;;;;;;;;;;;;;28.08;42.64;100713.84;5038365;28;780;-33
2021/06/24 00:52:29;;;;;;;;;;;;;;;28.04;42.80;100709.88;5039068;28;1902;-37
2021/06/24 00:54:56;;;;;;;;;;;;;;;28.05;42.79;100708.81;5038694;28;816;-31
2021/06/24 00:57:21;;;;;;;;;;;;;;;28.07;43.04;100711.34;5038563;28;835;-32
2021/06/24 00:59:46;;;;;;;;;;;;;;;28.00;43.10;100703.16;5038509;28;756;-38
2021/06/24 01:02:12;;;;;;;;;;;;;;;28.01;42.88;100702.09;5029163;28;956;-35
2021/06/24 01:04:37;;;;;;;;;;;;;;;28.00;43.04;100705.84;5018841;28;760;-38
2021/06/24 01:07:02;;;;;;;;;;;;;;;28.08;42.72;100708.44;5018637;28;766;-38
2021/06/24 01:09:32;;;;;;;;;;;;;;;28.06;42.52;100710.50;5018923;28;694;-33
2021/06/24 01:11:57;;;;;;;;;;;;;;;28.06;42.61;100715.91;5023505;28;1962;-38
2021/06/24 01:14:22;;;;;;;;;;;;;;;28.09;42.89;100720.09;5036514;28;1179;-34
2021/06/24 01:16:48;;;;;;;;;;;;;;;28.04;42.93;100725.25;5033423;28;1028;-36
2021/06/24 01:19:17;;;;;;;;;;;;;;;28.09;42.27;100725.50;5018154;28;1120;-34
2021/06/24 01:21:42;;;;;;;;;;;;;;;28.05;42.62;100727.75;5018031;28;827;-38
2021/06/24 01:24:08;;;;;;;;;;;;;;;28.04;42.92;100728.78;5018396;28;839;-36
2021/06/24 01:26:33;;;;;;;;;;;;;;;28.08;42.57;100721.13;5018598;28;882;-37
2021/06/24 01:28:59;;;;;;;;;;;;;;;28.04;42.32;100715.28;5017961;28;764;-37
2021/06/24 01:31:24;;;;;;;;;;;;;;;28.03;42.37;100701.94;5017294;28;1906;-34
2021/06/24 01:33:49;;;;;;;;;;;;;;;28.01;42.71;100701.28;5018450;28;803;-37
2021/06/24 01:36:15;;;;;;;;;;;;;;;27.99;42.44;100699.59;5018095;28;784;-35
2021/06/24 01:38:43;;;;;;;;;;;;;;;28.04;42.57;100703.59;5018409;28;715;-34
2021/06/24 01:41:12;;;;;;;;;;;;;;;28.05;42.41;100699.88;5018038;28;798;-34
2021/06/24 01:43:37;;;;;;;;;;;;;;;28.06;42.58;100706.97;5017905;28;816;-36
2021/06/24 01:46:02;;;;;;;;;;;;;;;28.03;42.36;100704.66;5018272;28;811;-36
2021/06/24 01:48:28;;;;;;;;;;;;;;;28.07;41.84;100690.56;5017710;28;963;-36
2021/06/24 01:50:54;;;;;;;;;;;;;;;28.07;42.23;100695.13;5017187;28;808;-34
2021/06/24 01:53:19;;;;;;;;;;;;;;;28.00;42.22;100684.22;5017900;28;1967;-37
2021/06/24 01:55:44;;;;;;;;;;;;;;;28.02;42.34;100682.16;5017038;28;736;-34
2021/06/24 01:58:13;;;;;;;;;;;;;;;28.04;41.84;100696.34;5017633;28;780;-36
2021/06/24 02:00:42;;;;;;;;;;;;;;;28.06;41.92;100702.38;5017565;28;845;-38
2021/06/24 02:03:07;;;;;;;;;;;;;;;28.08;42.17;100696.78;5017614;28;936;-38
2021/06/24 02:05:33;;;;;;;;;;;;;;;28.05;42.01;100692.59;5017453;28;828;-35
2021/06/24 02:07:58;;;;;;;;;;;;;;;28.05;41.95;100695.31;5017749;28;773;-38
2021/06/24 02:10:24;;;;;;;;;;;;;;;28.10;41.98;100694.72;5017595;28;788;-34
2021/06/24 02:12:49;;;;;;;;;;;;;;;28.07;41.92;100687.84;5029018;28;1965;-38
2021/06/24 02:15:15;;;;;;;;;;;;;;;28.02;42.51;100684.88;5037352;28;776;-36
2021/06/24 02:17:40;;;;;;;;;;;;;;;28.04;42.29;100680.13;5025592;28;963;-37
2021/06/24 02:20:06;;;;;;;;;;;;;;;28.07;42.04;100676.19;5016505;28;1300;-36
2021/06/24 02:22:32;;;;;;;;;;;;;;;28.12;41.79;100684.56;5017336;28;1040;-32
2021/06/24 02:24:57;;;;;;;;;;;;;;;28.11;42.18;100691.81;5017583;28;812;-36
2021/06/24 02:27:22;;;;;;;;;;;;;;;28.07;42.47;100695.97;5017031;28;833;-34
2021/06/24 02:29:47;;;;;;;;;;;;;;;28.06;42.64;100698.84;5017469;28;780;-35
2021/06/24 02:32:13;;;;;;;;;;;;;;;28.07;42.76;100698.66;5016328;28;1910;-33
2021/06/24 02:34:38;;;;;;;;;;;;;;;28.07;42.66;100700.53;5016924;28;768;-36
2021/06/24 02:37:03;;;;;;;;;;;;;;;28.14;42.52;100704.16;5016190;28;772;-33
2021/06/24 02:39:29;;;;;;;;;;;;;;;28.08;42.57;100703.03;5017330;28;735;-36
2021/06/24 02:41:54;;;;;;;;;;;;;;;28.13;42.58;100705.16;5016568;28;824;-33
2021/06/24 02:44:19;;;;;;;;;;;;;;;28.11;42.83;100705.34;5017259;28;800;-37
2021/06/24 02:46:45;;;;;;;;;;;;;;;28.13;42.85;100710.56;5016766;28;964;-37
2021/06/24 02:49:10;;;;;;;;;;;;;;;28.11;42.70;100712.66;5016721;28;773;-36
2021/06/24 02:51:35;;;;;;;;;;;;;;;28.11;43.03;100716.16;5016815;28;1907;-37
2021/06/24 02:54:00;;;;;;;;;;;;;;;28.14;43.03;100716.81;5017188;28;800;-38
2021/06/24 02:56:26;;;;;;;;;;;;;;;28.15;42.81;100722.03;5016581;28;823;-33
2021/06/24 02:58:51;;;;;;;;;;;;;;;28.14;42.68;100712.25;5016843;28;848;-37
2021/06/24 03:01:17;;;;;;;;;;;;;;;28.12;42.81;100722.41;5016412;28;925;-31
2021/06/24 03:03:42;;;;;;;;;;;;;;;28.15;42.91;100722.03;5016740;28;769;-37
2021/06/24 03:06:08;;;;;;;;;;;;;;;28.19;42.71;100720.63;5016647;28;750;-36
2021/06/24 03:08:33;;;;;;;;;;;;;;;28.21;42.94;100723.97;5017017;28;729;-37
2021/06/24 03:10:58;;;;;;;;;;;;;;;28.15;42.92;100734.72;5016474;28;774;-36
2021/06/24 03:13:24;;;;;;;;;;;;;;;27.68;42.88;100743.03;5033809;28;1910;-38
2021/06/24 03:15:49;;;;;;;;;;;;;;;27.71;42.51;100748.13;5035309;28;1009;-36
2021/06/24 03:18:14;;;;;;;;;;;;;;;27.65;42.50;100748.81;5018824;28;892;-32
2021/06/24 03:20:40;;;;;;;;;;;;;;;27.21;38.34;100748.63;5016958;28;1733;-42
2021/06/24 03:23:05;;;;;;;;;;;;;;;27.09;39.43;100748.22;5016769;28;772;-39
2021/06/24 03:25:30;;;;;;;;;;;;;;;26.84;38.03;100749.22;5016004;28;870;-32
2021/06/24 03:27:55;;;;;;;;;;;;;;;26.62;37.74;100753.63;5034895;28;966;-40
2021/06/24 03:30:21;;;;;;;;;;;;;;;26.63;37.44;100747.22;5036122;28;831;-30
2021/06/24 03:32:46;;;;;;;;;;;;;;;26.27;39.69;100756.69;5023141;28;1914;-31
2021/06/24 03:35:12;;;;;;;;;;;;;;;26.37;39.15;100759.19;5016458;28;780;-31
2021/06/24 03:37:37;;;;;;;;;;;;;;;26.01;40.06;100769.44;5016645;28;776;-39
2021/06/24 03:40:06;;;;;;;;;;;;;;;25.99;41.44;100773.34;5016236;28;836;-31
2021/06/24 03:42:32;;;;;;;;;;;;;;;26.14;40.53;100787.75;5016410;28;737;-32
2021/06/24 03:44:57;;;;;;;;;;;;;;;25.98;52.30;100787.81;5016229;28;784;-40
2021/06/24 03:47:23;;;;;;;;;;;;;;;25.72;55.93;100791.59;5015732;28;952;-33
2021/06/24 03:49:48;;;;;;;;;;;;;;;25.64;57.61;100790.59;5028564;28;1105;-40
2021/06/24 03:52:13;;;;;;;;;;;;;;;25.84;57.40;100800.16;5035817;28;1963;-34
2021/06/24 03:54:39;;;;;;;;;;;;;;;26.29;52.11;100803.19;5036359;28;756;-43
2021/06/24 03:57:04;;;;;;;;;;;;;;;26.69;47.84;100800.47;5036307;28;781;-32
2021/06/24 03:59:29;;;;;;;;;;;;;;;26.73;46.86;100803.63;5035962;28;1434;-39
2021/06/24 04:01:54;;;;;;;;;;;;;;;21.95;59.52;100805.72;5030104;28;979;-35
2021/06/24 04:04:20;;;;;;;;;;;;;;;21.04;62.65;100805.97;5034812;28;876;-40
2021/06/24 04:06:45;;;;;;;;;;;;;;;20.72;63.43;100805.22;5035972;28;737;-38
2021/06/24 04:09:11;;;;;;;;;;;;;;;22.16;58.19;100802.81;5036236;28;823;-33
2021/06/24 04:11:36;;;;;;;;;;;;;;;24.01;52.49;100808.81;5035825;28;1971;-26
2021/06/24 04:14:02;;;;;;;;;;;;;;;24.19;49.36;100808.78;5035731;28;863;-23
2021/06/24 04:16:27;;;;;;;;;;;;;;;22.27;55.73;100813.31;5034362;28;1011;-24
2021/06/24 04:18:52;;;;;;;;;;;;;;;24.42;48.96;100816.25;5017877;28;1080;-24
2021/06/24 04:21:17;;;;;;;;;;;;;;;23.03;52.82;100815.00;5019484;28;741;-24
2021/06/24 04:23:43;;;;;;;;;;;;;;;24.05;51.02;100811.03;5019640;28;867;-23
2021/06/24 04:26:08;;;;;;;;;;;;;;;25.10;44.53;100818.91;5019726;28;782;-25
2021/06/24 04:28:33;;;;;;;;;;;;;;;22.57;53.81;100810.47;5019152;28;864;-24
2021/06/24 04:30:59;;;;;;;;;;;;;;;24.54;46.77;100822.16;5019644;28;744;-24
2021/06/24 04:33:24;;;;;;;;;;;;;;;23.46;50.83;100817.88;5018649;28;1971;-25
2021/06/24 04:35:49;;;;;;;;;;;;;;;24.24;47.98;100819.84;5019009;28;540;-24
2021/06/24 04:38:15;;;;;;;;;;;;;;;25.05;43.94;100821.25;5019493;28;843;-26
2021/06/24 04:40:40;;;;;;;;;;;;;;;22.84;52.66;100821.34;5019099;28;805;-23
2021/06/24 04:43:05;;;;;;;;;;;;;;;24.69;45.08;100833.94;5019044;28;839;-23
2021/06/24 04:45:31;;;;;;;;;;;;;;;23.28;52.61;100831.31;5019681;28;729;-26
2021/06/24 04:47:56;;;;;;;;;;;;;;;24.09;51.44;100824.97;5018334;28;1027;-25
2021/06/24 04:50:21;;;;;;;;;;;;;;;24.74;46.41;100830.75;5018656;28;808;-24
2021/06/24 04:52:47;;;;;;;;;;;;;;;23.16;53.78;100827.16;5018987;28;1964;-25
2021/06/24 04:55:12;;;;;;;;;;;;;;;23.90;53.02;100831.44;5018961;28;760;-25
2021/06/24 04:57:38;;;;;;;;;;;;;;;24.55;47.96;100831.91;5019151;28;790;-23
2021/06/24 05:00:04;;;;;;;;;;;;;;;23.08;54.34;100830.63;5018679;28;789;-25
2021/06/24 05:02:30;;;;;;;;;;;;;;;23.61;53.37;100833.44;5018571;28;987;-24
2021/06/24 05:04:56;;;;;;;;;;;;;;;24.54;48.72;100833.75;5018612;28;828;-26
2021/06/24 05:07:21;;;;;;;;;;;;;;;23.61;53.33;100836.13;5018720;28;843;-23
2021/06/24 05:09:46;;;;;;;;;;;;;;;23.20;53.68;100837.47;5018551;28;748;-23
2021/06/24 05:12:12;;;;;;;;;;;;;;;24.08;47.66;100840.25;5025669;28;1960;-23
2021/06/24 05:14:37;;;;;;;;;;;;;;;23.84;51.09;100833.75;5038489;28;803;-25
2021/06/24 05:17:06;;;;;;;;;;;;;;;23.27;51.50;100836.84;5031721;28;1019;-24
2021/06/24 05:19:34;;;;;;;;;;;;;;;24.10;47.39;100832.03;5018359;28;1327;-23
2021/06/24 05:21:59;;;;;;;;;;;;;;;23.30;50.74;100841.88;5018610;28;811;-24
2021/06/24 05:24:25;;;;;;;;;;;;;;;22.62;53.03;100835.03;5018110;28;808;-33
2021/06/24 05:26:50;;;;;;;;;;;;;;;24.07;48.78;100841.25;5018421;28;760;-26
2021/06/24 05:29:15;;;;;;;;;;;;;;;23.45;50.73;100835.00;5018258;28;903;-24
2021/06/24 05:31:40;;;;;;;;;;;;;;;22.63;52.88;100841.25;5017875;28;2001;-35
2021/06/24 05:34:06;;;;;;;;;;;;;;;23.56;50.98;100847.31;5018194;28;796;-24
2021/06/24 05:36:33;;;;;;;;;;;;;;;24.77;43.32;100845.75;5018095;28;804;-24
2021/06/24 05:38:58;;;;;;;;;;;;;;;22.61;53.45;100838.72;5017663;28;875;-24
2021/06/24 05:41:23;;;;;;;;;;;;;;;24.05;48.23;100839.75;5018129;28;772;-25
2021/06/24 05:43:49;;;;;;;;;;;;;;;24.62;47.83;100849.09;5018513;28;819;-24
2021/06/24 05:46:14;;;;;;;;;;;;;;;22.68;54.05;100838.09;5017856;28;840;-24
2021/06/24 05:48:39;;;;;;;;;;;;;;;24.16;48.39;100844.84;5037295;28;952;-25
2021/06/24 05:51:04;;;;;;;;;;;;;;;24.43;49.16;100836.72;5037490;28;833;-25
2021/06/24 05:53:30;;;;;;;;;;;;;;;23.23;52.12;100839.84;5037263;28;1890;-26
2021/06/24 05:55:55;;;;;;;;;;;;;;;23.66;51.07;100839.16;5037655;28;938;-26
2021/06/24 05:58:25;;;;;;;;;;;;;;;24.73;45.43;100834.47;5037468;28;812;-26
2021/06/24 06:00:51;;;;;;;;;;;;;;;23.52;52.38;100837.91;5037510;28;796;-25
2021/06/24 06:03:18;;;;;;;;;;;;;;;23.67;51.85;100838.16;5020556;28;916;-28
2021/06/24 06:05:43;;;;;;;;;;;;;;;24.24;51.27;100833.28;5017680;28;839;-27
2021/06/24 06:08:09;;;;;;;;;;;;;;;25.00;44.29;100832.53;5017766;28;764;-25
2021/06/24 06:10:35;;;;;;;;;;;;;;;23.71;51.41;100842.22;5017341;28;788;-25
2021/06/24 06:13:00;;;;;;;;;;;;;;;23.50;52.15;100845.28;5031149;28;1902;-25
2021/06/24 06:15:25;;;;;;;;;;;;;;;24.48;47.55;100847.84;5037228;28;791;-25
2021/06/24 06:17:50;;;;;;;;;;;;;;;24.51;50.09;100855.59;5023510;28;955;-32
2021/06/24 06:20:16;;;;;;;;;;;;;;;24.12;51.14;100845.31;5017428;28;1101;-27
2021/06/24 06:22:41;;;;;;;;;;;;;;;24.01;51.54;100843.72;5017759;28;741;-27
2021/06/24 06:25:07;;;;;;;;;;;;;;;23.66;52.21;100843.69;5017301;28;867;-26
2021/06/24 06:27:32;;;;;;;;;;;;;;;23.92;52.34;100840.19;5017864;28;808;-26
2021/06/24 06:29:57;;;;;;;;;;;;;;;24.40;50.80;100848.66;5017315;28;749;-26
2021/06/24 06:32:24;;;;;;;;;;;;;;;25.09;45.23;100848.69;5016805;28;1971;-27
2021/06/24 06:34:49;;;;;;;;;;;;;;;23.62;52.34;100842.34;5016965;28;830;-28
2021/06/24 06:37:14;;;;;;;;;;;;;;;23.73;52.38;100850.97;5016916;28;780;-28
2021/06/24 06:39:40;;;;;;;;;;;;;;;23.94;52.60;100838.19;5016840;28;780;-25
2021/06/24 06:42:05;;;;;;;;;;;;;;;23.82;52.80;100829.53;5016722;28;752;-26
2021/06/24 06:44:30;;;;;;;;;;;;;;;23.94;52.67;100830.94;5017025;28;745;-26
2021/06/24 06:46:56;;;;;;;;;;;;;;;24.34;50.25;100831.31;5016106;28;964;-24
2021/06/24 06:49:21;;;;;;;;;;;;;;;24.93;46.56;100826.97;5017171;28;863;-25
2021/06/24 06:51:46;;;;;;;;;;;;;;;24.30;51.76;100829.97;5016897;28;1902;-23
2021/06/24 06:54:12;;;;;;;;;;;;;;;23.90;52.62;100826.06;5016780;28;780;-26
2021/06/24 06:56:37;;;;;;;;;;;;;;;24.19;51.51;100825.72;5016987;28;907;-33
2021/06/24 06:59:05;;;;;;;;;;;;;;;24.92;46.20;100822.59;5017012;28;746;-24
2021/06/24 07:01:31;;;;;;;;;;;;;;;24.39;51.28;100809.31;5015859;28;1011;-26
2021/06/24 07:03:56;;;;;;;;;;;;;;;24.06;51.37;100810.00;5016950;28;787;-27
2021/06/24 07:06:23;;;;;;;;;;;;;;;23.93;50.95;100809.59;5016698;28;811;-26
2021/06/24 07:08:48;;;;;;;;;;;;;;;24.60;48.17;100815.28;5016908;28;852;-22
2021/06/24 07:11:13;;;;;;;;;;;;;;;24.65;50.41;100816.47;5016874;28;898;-23
2021/06/24 07:13:39;;;;;;;;;;;;;;;23.74;51.34;100808.81;5035362;28;1902;-23
2021/06/24 07:16:04;;;;;;;;;;;;;;;23.69;51.13;100808.50;5035863;28;1608;-23
2021/06/24 07:18:29;;;;;;;;;;;;;;;23.74;50.93;100814.19;5036097;28;1250;-23
2021/06/24 07:20:55;;;;;;;;;;;;;;;24.53;47.69;100812.41;5030779;28;1231;-24
2021/06/24 07:23:20;;;;;;;;;;;;;;;24.64;50.01;100805.88;5034282;28;1124;-23
2021/06/24 07:25:45;;;;;;;;;;;;;;;23.81;51.46;100806.34;5036599;28;1023;-23
2021/06/24 07:28:11;;;;;;;;;;;;;;;23.78;50.96;100802.16;5036143;28;1113;-23
2021/06/24 07:30:36;;;;;;;;;;;;;;;23.89;50.52;100801.03;5035441;28;865;-23
2021/06/24 07:33:01;;;;;;;;;;;;;;;24.39;49.12;100800.44;5036304;28;1914;-23
2021/06/24 07:35:27;;;;;;;;;;;;;;;24.98;44.88;100806.78;5034302;28;952;-23
2021/06/24 07:37:52;;;;;;;;;;;;;;;23.49;52.17;100805.97;5016361;28;845;-24
2021/06/24 07:40:18;;;;;;;;;;;;;;;23.76;50.98;100797.91;5031181;28;1258;-33
2021/06/24 07:42:43;;;;;;;;;;;;;;;24.15;50.43;100802.84;5036025;28;744;-30
2021/06/24 07:45:08;;;;;;;;;;;;;;;24.88;45.42;100805.06;5036330;28;880;-25
2021/06/24 07:47:34;;;;;;;;;;;;;;;23.55;52.25;100804.53;5036315;28;855;-24
2021/06/24 07:49:59;;;;;;;;;;;;;;;23.75;51.31;100797.09;5035421;28;764;-24
2021/06/24 07:52:24;;;;;;;;;;;;;;;23.69;50.96;100800.44;5019507;28;1898;-23
2021/06/24 07:54:50;;;;;;;;;;;;;;;24.34;49.37;100796.38;5039132;28;1470;-23
2021/06/24 07:57:15;;;;;;;;;;;;;;;24.76;49.97;100796.47;5039593;28;814;-24
2021/06/24 07:59:40;;;;;;;;;;;;;;;23.38;52.68;100798.16;5039718;28;819;-23
2021/06/24 08:02:06;;;;;;;;;;;;;;;23.70;51.36;100802.09;5039513;28;748;-25
2021/06/24 08:04:32;;;;;;;;;;;;;;;23.76;51.32;100803.28;5040032;28;790;-25
2021/06/24 08:06:57;;;;;;;;;;;;;;;24.02;52.24;100807.81;5036128;28;1026;-24
2021/06/24 08:09:22;;;;;;;;;;;;;;;24.81;46.03;100815.66;5039597;28;752;-26
2021/06/24 08:11:48;;;;;;;;;;;;;;;23.86;50.97;100814.78;5042916;28;1955;-24
2021/06/24 08:14:13;;;;;;;;;;;;;;;23.66;51.44;100806.94;5032258;28;1371;-23
2021/06/24 08:16:39;;;;;;;;;;;;;;;23.70;50.91;100807.47;5040065;28;732;-24
2021/06/24 08:19:04;;;;;;;;;;;;;;;24.23;51.03;100818.19;5039438;28;1160;-23
2021/06/24 08:21:30;;;;;;;;;;;;;;;24.91;46.70;100818.22;5038937;28;871;-23
2021/06/24 08:23:55;;;;;;;;;;;;;;;23.37;53.03;100816.13;5039694;28;735;-23
2021/06/24 08:26:20;;;;;;;;;;;;;;;23.47;52.24;100814.19;5039471;28;822;-31
2021/06/24 08:28:46;;;;;;;;;;;;;;;23.49;52.19;100822.09;5022065;28;971;-23
2021/06/24 08:31:11;;;;;;;;;;;;;;;23.32;52.04;100816.56;5033295;28;879;-23
2021/06/24 08:33:36;;;;;;;;;;;;;;;24.16;51.30;100817.97;5038997;28;1914;-29
2021/06/24 08:36:03;;;;;;;;;;;;;;;24.83;47.08;100819.03;5038870;28;887;-23
2021/06/24 08:38:28;;;;;;;;;;;;;;;23.35;53.56;100812.75;5038994;28;827;-23
2021/06/24 08:40:57;;;;;;;;;;;;;;;23.81;51.85;100820.63;5039059;28;756;-22
2021/06/24 08:43:22;;;;;;;;;;;;;;;23.73;51.73;100815.22;5037619;28;956;-22
2021/06/24 08:45:47;;;;;;;;;;;;;;;23.78;52.94;100812.03;5038896;28;809;-24
2021/06/24 08:48:16;;;;;;;;;;;;;;;24.70;47.74;100813.28;5039500;28;806;-25
2021/06/24 08:50:42;;;;;;;;;;;;;;;22.19;55.23;100809.72;5038919;28;822;-23
2021/06/24 08:53:08;;;;;;;;;;;;;;;23.67;51.93;100805.09;5037424;28;1955;-23
2021/06/24 08:55:40;;;;;;;;;;;;;;;24.74;46.65;100808.41;5038370;28;784;-26
2021/06/24 08:58:06;;;;;;;;;;;;;;;23.01;52.38;100803.56;5037931;28;944;-23
2021/06/24 09:00:31;;;;;;;;;;;;;;;24.05;50.04;100802.13;5038780;28;752;-24
2021/06/24 09:02:59;;;;;;;;;;;;;;;24.88;46.41;100805.06;5039058;28;823;-23
2021/06/24 09:05:24;;;;;;;;;;;;;;;22.72;52.79;100797.44;5037329;28;890;-25
2021/06/24 09:07:50;;;;;;;;;;;;;;;23.95;49.72;100803.09;5037030;28;1508;-33
2021/06/24 09:10:16;;;;;;;;;;;;;;;24.68;46.14;100785.69;5038923;28;897;-23
2021/06/24 09:12:54;;;;;;;;;;;;;;;22.48;52.98;100780.06;5030038;28;1894;-23
2021/06/24 09:34:48;;;;;;;;;;;;;;;23.17;51.39;100778.72;5050586;26;1635;-34
2021/06/24 10:06:31;;;;;;;;;;;;;;;22.35;52.43;100763.50;5064245;22;4018;-25
2021/06/24 10:14:50;;;;;;;;;;;;;;;22.90;50.62;100760.88;4961955;28;1102;-24
2021/06/24 10:17:16;;;;;;;;;;;;;;;23.38;50.93;100757.88;5009577;28;885;-27
2021/06/24 10:19:42;;;;;;;;;;;;;;;24.50;46.03;100764.31;5023197;28;920;-27
2021/06/24 10:22:18;;;;;;;;;;;;;;;22.34;53.04;100759.13;5138305;22;3597;-28
2021/06/24 10:24:52;;;;;;;;;;;;;;;23.04;52.01;100754.16;5077879;28;790;-28
2021/06/24 10:27:18;;;;;;;;;;;;;;;24.49;46.73;100754.59;5096396;28;1420;-24
2021/06/24 10:29:43;;;;;;;;;;;;;;;22.55;51.48;100752.66;5066644;28;1258;-28
2021/06/24 10:32:28;;;;;;;;;;;;;;;22.76;51.48;100749.69;5100342;28;1982;-29
2021/06/24 10:34:54;;;;;;;;;;;;;;;24.64;44.47;100752.09;5101024;28;1076;-29
2021/06/24 10:37:22;;;;;;;;;;;;;;;22.34;51.16;100740.34;5117086;28;806;-28
2021/06/24 10:39:48;;;;;;;;;;;;;;;22.98;51.32;100742.19;5117697;28;786;-28
2021/06/24 10:42:15;;;;;;;;;;;;;;;24.62;43.98;100744.19;5117672;28;835;-27
2021/06/24 10:44:44;;;;;;;;;;;;;;;22.41;50.13;100740.59;5106057;28;989;-28
2021/06/24 10:47:09;;;;;;;;;;;;;;;23.76;47.23;100745.06;5101626;28;1123;-27
2021/06/24 10:49:34;;;;;;;;;;;;;;;24.80;43.49;100752.09;5117468;28;819;-26
2021/06/24 10:52:25;;;;;;;;;;;;;;;23.46;50.10;100741.88;5116799;28;1901;-27
2021/06/24 10:54:51;;;;;;;;;;;;;;;23.48;50.02;100739.88;5117631;28;771;-27
2021/06/24 10:57:48;;;;;;;;;;;;;;;23.48;50.98;100743.41;5117220;28;490;-27
2021/06/24 11:00:32;;;;;;;;;;;;;;;24.91;43.67;100742.88;5055528;28;1214;-27
2021/06/24 11:02:58;;;;;;;;;;;;;;;22.68;50.55;100741.56;5097125;28;826;-27
2021/06/24 11:05:23;;;;;;;;;;;;;;;24.07;48.65;100735.63;5097086;28;775;-26
2021/06/24 11:07:49;;;;;;;;;;;;;;;24.98;43.58;100739.50;5096820;28;865;-27
2021/06/24 11:10:18;;;;;;;;;;;;;;;23.75;49.59;100742.53;5078839;28;747;-27
2021/06/24 11:12:56;;;;;;;;;;;;;;;23.51;50.78;100744.06;5096698;28;1905;-26
2021/06/24 11:16:00;;;;;;;;;;;;;;;23.81;50.15;100745.41;5097149;28;951;-27
2021/06/24 11:18:28;;;;;;;;;;;;;;;24.03;49.80;100740.47;4985153;28;1582;-28
2021/06/24 11:20:53;;;;;;;;;;;;;;;23.89;50.04;100733.03;4994750;28;796;-26
2021/06/24 11:23:32;;;;;;;;;;;;;;;24.65;47.11;100751.91;5036510;28;1347;-28
2021/06/24 11:26:06;;;;;;;;;;;;;;;24.68;48.79;100745.34;5117057;28;798;-27
2021/06/24 11:31:44;;;;;;;;;;;;;;;23.70;49.44;100735.81;5099871;28;604;-29
2021/06/24 11:36:50;;;;;;;;;;;;;;;23.34;50.12;100719.78;5100220;28;640;-27
2021/06/24 11:39:39;;;;;;;;;;;;;;;22.87;50.07;100727.19;5100373;28;814;-28
2021/06/24 11:42:05;;;;;;;;;;;;;;;24.70;44.03;100728.06;5092336;28;1867;-28
2021/06/24 11:44:32;;;;;;;;;;;;;;;24.33;48.12;100726.66;5099964;28;955;-28
2021/06/24 11:46:58;;;;;;;;;;;;;;;23.86;48.42;100720.75;5100532;28;810;-28
2021/06/24 12:00:32;;;;;;;;;;;;;;;23.91;49.45;100729.19;5099850;28;935;-28
2021/06/24 12:03:06;;;;;;;;;;;;;;;23.67;50.38;100728.06;5099778;28;835;-28
2021/06/24 12:05:31;;;;;;;;;;;;;;;23.36;51.24;100729.38;5099850;28;795;-28
2021/06/24 12:07:56;;;;;;;;;;;;;;;24.26;49.26;100723.78;5082086;28;723;-28
2021/06/24 12:10:23;;;;;;;;;;;;;;;24.89;44.14;100725.19;5100054;28;790;-28
2021/06/24 12:12:48;;;;;;;;;;;;;;;21.70;54.65;100715.16;5099620;28;1967;-27
2021/06/24 12:15:14;;;;;;;;;;;;;;;22.70;52.26;100719.00;5099765;28;990;-28
2021/06/24 12:17:39;;;;;;;;;;;;;;;24.41;46.16;100715.91;5100159;28;758;-29
2021/06/24 12:20:05;;;;;;;;;;;;;;;22.68;51.26;100715.63;5099589;28;719;-28
2021/06/24 12:22:30;;;;;;;;;;;;;;;22.75;51.65;100718.53;5099390;28;1327;-30
2021/06/24 12:24:55;;;;;;;;;;;;;;;24.55;44.70;100724.34;5114825;28;1186;-28
2021/06/24 12:27:21;;;;;;;;;;;;;;;23.16;50.80;100717.16;5119867;28;801;-37
2021/06/24 12:29:46;;;;;;;;;;;;;;;23.21;50.47;100707.63;5108242;28;942;-43
2021/06/24 12:32:12;;;;;;;;;;;;;;;23.38;50.39;100709.56;5099514;28;1913;-25
2021/06/24 12:34:37;;;;;;;;;;;;;;;24.54;44.74;100711.91;5080439;28;840;-28
2021/06/24 12:37:02;;;;;;;;;;;;;;;22.72;50.49;100713.47;5099729;28;802;-27
2021/06/24 12:39:28;;;;;;;;;;;;;;;23.31;50.70;100706.69;5098340;28;1433;-27
2021/06/24 12:41:53;;;;;;;;;;;;;;;24.64;43.36;100709.06;5080252;28;820;-47
2021/06/24 12:44:18;;;;;;;;;;;;;;;22.49;51.66;100711.19;5081378;28;947;-25
2021/06/24 12:46:44;;;;;;;;;;;;;;;22.98;50.14;100696.56;5081126;28;966;-29
2021/06/24 12:49:16;;;;;;;;;;;;;;;24.41;44.68;100701.63;5098101;28;1142;-45
2021/06/24 12:51:41;;;;;;;;;;;;;;;23.61;48.65;100707.22;5099163;28;751;-48
2021/06/24 12:54:13;;;;;;;;;;;;;;;22.59;51.50;100698.56;5099383;28;1897;-26
2021/06/24 12:56:39;;;;;;;;;;;;;;;24.42;43.77;100706.81;5098729;28;715;-28
2021/06/24 12:59:08;;;;;;;;;;;;;;;22.59;50.17;100709.28;5099024;28;954;-22
2021/06/24 13:01:39;;;;;;;;;;;;;;;22.35;51.17;100709.91;5099023;28;806;-26
2021/06/24 13:04:11;;;;;;;;;;;;;;;24.29;44.52;100711.88;5098097;28;1488;-26
2021/06/24 13:06:44;;;;;;;;;;;;;;;22.95;48.86;100711.16;5095110;28;787;-25
2021/06/24 13:09:11;;;;;;;;;;;;;;;23.38;49.90;100715.78;5114045;28;898;-25
2021/06/24 13:11:52;;;;;;;;;;;;;;;24.60;43.28;100721.13;5098836;28;812;-25
2021/06/24 13:14:21;;;;;;;;;;;;;;;23.14;48.96;100717.31;5098699;28;930;-24
2021/06/24 13:16:46;;;;;;;;;;;;;;;23.20;49.39;100716.69;5098724;28;747;-26
2021/06/24 13:19:25;;;;;;;;;;;;;;;24.45;43.23;100719.97;5098229;28;850;-24
2021/06/24 13:21:51;;;;;;;;;;;;;;;23.04;48.62;100732.69;5098182;28;1684;-24
2021/06/24 13:24:17;;;;;;;;;;;;;;;23.93;46.71;100731.69;5107875;28;1194;-26
2021/06/24 13:26:43;;;;;;;;;;;;;;;24.70;42.21;100721.81;5119036;28;767;-25
2021/06/24 13:29:15;;;;;;;;;;;;;;;23.50;48.55;100716.41;5112062;28;1013;-25
2021/06/24 13:31:43;;;;;;;;;;;;;;;23.06;49.74;100709.19;5098195;28;905;-23
2021/06/24 13:34:13;;;;;;;;;;;;;;;24.48;44.32;100712.53;5097596;28;1971;-25
2021/06/24 13:36:41;;;;;;;;;;;;;;;23.13;49.15;100702.22;5098410;28;723;-25
2021/06/24 13:39:08;;;;;;;;;;;;;;;23.55;48.33;100702.50;5098168;28;933;-25
2021/06/24 13:41:33;;;;;;;;;;;;;;;24.63;44.21;100705.50;5097542;28;708;-26
2021/06/24 13:44:09;;;;;;;;;;;;;;;22.33;50.54;100701.16;5097803;28;1006;-22
2021/06/24 13:46:35;;;;;;;;;;;;;;;23.65;48.67;100707.75;5098636;28;759;-25
2021/06/24 13:49:00;;;;;;;;;;;;;;;24.69;43.26;100707.53;5097820;28;755;-27
2021/06/24 13:51:25;;;;;;;;;;;;;;;22.53;50.96;100707.25;5097850;28;788;-25
2021/06/24 13:54:17;;;;;;;;;;;;;;;23.38;50.46;100705.06;5097944;28;1968;-28
2021/06/24 13:56:44;;;;;;;;;;;;;;;24.70;43.23;100693.09;5093887;28;1789;-25
2021/06/24 13:59:09;;;;;;;;;;;;;;;22.79;49.65;100692.25;5097436;28;1046;-25
2021/06/24 14:01:35;;;;;;;;;;;;;;;24.00;47.20;100702.34;5098181;28;739;-49
2021/06/24 14:04:00;;;;;;;;;;;;;;;24.79;43.01;100695.78;5097525;28;806;-46